Time;durP1;ratioP1;P1;durP2;ratioP2;P2;SDS_P1;SDS_P2;PMS_P1;PMS_P2;Temp;Humidity;BMP_temperature;BMP_pressure;BME280_temperature;BME280_humidity;BME280_pressure;Samples;Min_cycle;Max_cycle;Signal;HPM_P1;HPM_P2
2021/04/23 00:02:42;;;;;;;1.85;0.40;;;5.00;99.90;;;;;;13054968;22;20015;-81
2021/04/23 00:07:43;;;;;;;0.85;0.30;;;5.00;99.90;;;;;;13080832;22;20019;-81
2021/04/23 00:12:43;;;;;;;2.60;0.70;;;4.90;99.90;;;;;;13054214;22;20015;-81
2021/04/23 00:17:44;;;;;;;3.08;0.77;;;4.80;99.90;;;;;;13053956;22;20010;-81
2021/04/23 00:22:45;;;;;;;3.25;1.30;;;4.80;99.90;;;;;;13053965;22;20010;-83
2021/04/23 00:27:46;;;;;;;2.72;0.90;;;4.70;99.90;;;;;;13052906;22;20013;-81
2021/04/23 00:32:55;;;;;;;1.48;0.47;;;4.50;99.90;;;;;;13053950;22;20023;-81
2021/04/23 00:37:57;;;;;;;1.67;0.80;;;4.50;99.90;;;;;;13055784;22;20657;-82
2021/04/23 00:42:59;;;;;;;3.10;0.60;;;4.50;99.90;;;;;;13105988;22;20710;-82
2021/04/23 00:48:02;;;;;;;1.40;0.63;;;4.50;99.90;;;;;;13081416;22;20034;-81
2021/04/23 00:53:03;;;;;;;1.63;0.60;;;4.40;99.90;;;;;;13055827;22;20026;-81
2021/04/23 00:58:10;;;;;;;1.80;0.60;;;4.40;99.90;;;;;;13105345;22;20013;-81
2021/04/23 01:03:12;;;;;;;3.88;1.42;;;4.40;99.90;;;;;;13081580;22;20007;-82
2021/04/23 01:08:13;;;;;;;2.15;0.47;;;4.40;99.90;;;;;;13080426;22;20006;-81
2021/04/23 01:13:14;;;;;;;6.28;1.20;;;4.30;99.90;;;;;;13055228;22;20015;-82
2021/04/23 01:18:14;;;;;;;2.60;1.00;;;4.20;99.90;;;;;;13053836;22;20633;-81
2021/04/23 01:23:15;;;;;;;1.70;0.60;;;4.20;99.90;;;;;;13080516;22;20025;-83
2021/04/23 01:28:15;;;;;;;3.33;1.23;;;4.20;99.90;;;;;;13079018;22;20002;-83
2021/04/23 01:33:16;;;;;;;3.80;1.05;;;4.20;99.90;;;;;;13080168;22;20435;-83
2021/04/23 01:38:18;;;;;;;2.50;1.15;;;4.10;99.90;;;;;;13080540;22;20006;-83
2021/04/23 01:43:19;;;;;;;2.28;0.90;;;4.10;99.90;;;;;;13054297;22;20789;-83
2021/04/23 01:48:20;;;;;;;2.00;0.65;;;4.10;99.90;;;;;;13106331;22;20018;-83
2021/04/23 01:53:21;;;;;;;1.92;0.70;;;4.00;99.90;;;;;;13057154;22;20463;-83
2021/04/23 01:58:21;;;;;;;2.78;0.75;;;4.00;99.90;;;;;;13082140;22;20023;-83
2021/04/23 02:03:23;;;;;;;4.47;0.65;;;3.90;99.90;;;;;;13057063;22;20022;-83
2021/04/23 02:08:26;;;;;;;4.47;1.13;;;3.80;99.90;;;;;;13058804;22;20011;-83
2021/04/23 02:13:28;;;;;;;6.10;1.85;;;3.80;99.90;;;;;;13083904;22;20019;-83
2021/04/23 02:18:29;;;;;;;4.05;0.93;;;3.80;99.90;;;;;;13087730;22;20011;-83
2021/04/23 02:23:30;;;;;;;2.67;1.00;;;3.80;99.90;;;;;;13114105;22;20018;-83
2021/04/23 02:28:31;;;;;;;2.67;1.08;;;3.80;99.90;;;;;;13086596;22;20015;-83
2021/04/23 02:33:32;;;;;;;1.75;0.63;;;3.80;99.90;;;;;;13060493;22;20026;-83
2021/04/23 02:38:33;;;;;;;2.70;1.38;;;3.80;99.90;;;;;;13086230;22;20046;-83
2021/04/23 02:43:41;;;;;;;4.10;1.58;;;3.60;99.90;;;;;;13086178;22;20692;-83
2021/04/23 02:48:44;;;;;;;2.07;1.00;;;3.60;99.90;;;;;;13085759;22;20019;-83
2021/04/23 02:53:45;;;;;;;6.35;1.10;;;3.70;99.90;;;;;;13086622;22;20080;-83
2021/04/23 02:58:46;;;;;;;3.78;1.20;;;3.60;99.90;;;;;;13085071;22;20007;-83
2021/04/23 03:03:47;;;;;;;12.45;1.33;;;3.50;99.90;;;;;;13060401;22;20014;-83
2021/04/23 03:08:48;;;;;;;1.92;0.85;;;3.40;99.90;;;;;;13060996;22;20454;-83
2021/04/23 03:13:52;;;;;;;4.03;1.60;;;3.30;99.90;;;;;;13060098;22;20057;-83
2021/04/23 03:18:54;;;;;;;9.88;1.50;;;3.40;99.90;;;;;;13082200;22;20642;-83
2021/04/23 03:23:55;;;;;;;2.72;0.90;;;3.30;99.90;;;;;;13057420;22;20552;-83
2021/04/23 03:28:56;;;;;;;2.33;0.95;;;3.30;99.90;;;;;;13057154;22;20056;-83
2021/04/23 03:33:57;;;;;;;12.68;0.95;;;3.30;99.90;;;;;;13082852;22;20072;-82
2021/04/23 03:38:58;;;;;;;5.00;2.03;;;3.20;99.90;;;;;;13083606;22;20022;-83
2021/04/23 03:44:00;;;;;;;7.75;1.25;;;3.20;99.90;;;;;;13082101;22;20102;-83
2021/04/23 03:49:01;;;;;;;4.65;1.17;;;3.10;99.90;;;;;;13058502;22;20011;-83
2021/04/23 03:54:02;;;;;;;3.38;1.17;;;3.00;99.90;;;;;;13084057;22;20014;-83
2021/04/23 03:59:03;;;;;;;5.38;1.58;;;3.00;99.90;;;;;;13084238;22;20006;-84
2021/04/23 04:04:06;;;;;;;2.67;1.05;;;2.90;99.90;;;;;;13083866;22;20013;-83
2021/04/23 04:09:07;;;;;;;10.57;1.33;;;3.00;99.90;;;;;;13084143;22;20013;-83
2021/04/23 04:14:07;;;;;;;3.90;1.63;;;3.00;99.90;;;;;;13083542;22;20038;-83
2021/04/23 04:19:08;;;;;;;6.38;2.15;;;2.90;99.90;;;;;;13057345;22;20520;-83
2021/04/23 04:24:09;;;;;;;3.22;1.23;;;3.00;99.90;;;;;;13084324;22;20018;-83
2021/04/23 04:29:10;;;;;;;3.85;0.82;;;3.00;99.90;;;;;;13054957;22;20327;-82
2021/04/23 04:34:12;;;;;;;4.60;1.70;;;3.00;99.90;;;;;;13082250;22;20045;-83
2021/04/23 04:39:12;;;;;;;2.67;0.90;;;3.20;99.90;;;;;;13055093;22;20015;-83
2021/04/23 04:44:13;;;;;;;5.63;1.75;;;3.10;99.90;;;;;;13055769;22;20036;-84
2021/04/23 04:49:14;;;;;;;5.40;1.30;;;3.20;99.90;;;;;;13057279;22;20014;-83
2021/04/23 04:54:14;;;;;;;3.15;1.48;;;3.10;99.90;;;;;;13083588;22;20046;-83
2021/04/23 04:59:15;;;;;;;2.20;1.15;;;3.20;99.90;;;;;;13107587;22;20111;-83
2021/04/23 05:04:16;;;;;;;2.17;1.30;;;3.30;99.90;;;;;;13057191;22;20011;-83
2021/04/23 05:09:17;;;;;;;5.00;1.40;;;3.40;99.90;;;;;;13082541;22;20003;-83
2021/04/23 05:14:17;;;;;;;2.08;0.77;;;3.50;99.90;;;;;;13080329;22;20018;-84
2021/04/23 05:19:19;;;;;;;3.95;1.35;;;3.50;99.90;;;;;;13079938;22;20006;-83
2021/04/23 05:24:19;;;;;;;4.60;1.58;;;3.50;99.90;;;;;;13079089;22;20030;-83
2021/04/23 05:29:20;;;;;;;4.05;1.70;;;3.60;99.90;;;;;;13080603;22;20354;-83
2021/04/23 05:34:21;;;;;;;1.77;0.88;;;3.70;99.90;;;;;;13080365;22;20019;-83
2021/04/23 05:39:22;;;;;;;4.15;1.13;;;3.80;99.90;;;;;;13058653;22;20011;-82
2021/04/23 05:44:22;;;;;;;3.35;1.08;;;3.90;99.90;;;;;;13081881;22;20054;-83
2021/04/23 05:49:23;;;;;;;2.38;0.88;;;4.30;99.90;;;;;;13075363;22;20029;-82
2021/04/23 05:54:24;;;;;;;5.30;1.40;;;4.70;99.90;;;;;;13072392;22;20021;-83
2021/04/23 05:59:24;;;;;;;3.10;0.60;;;4.90;99.90;;;;;;13053851;22;20010;-81
2021/04/23 06:04:25;;;;;;;7.22;1.45;;;4.90;99.90;;;;;;13098171;22;20011;-81
2021/04/23 06:09:26;;;;;;;1.45;0.60;;;4.90;99.90;;;;;;13077742;22;20064;-81
2021/04/23 06:14:27;;;;;;;3.78;1.00;;;4.90;99.90;;;;;;13103148;22;20081;-81
2021/04/23 06:19:29;;;;;;;3.47;1.10;;;4.90;99.90;;;;;;13038404;22;20071;-81
2021/04/23 06:24:30;;;;;;;4.25;0.82;;;5.10;99.90;;;;;;13062654;22;20136;-81
2021/04/23 06:29:32;;;;;;;8.68;1.25;;;5.30;99.90;;;;;;13067147;22;20462;-81
2021/04/23 06:34:33;;;;;;;1.63;0.90;;;5.70;99.90;;;;;;13041196;22;20109;-81
2021/04/23 06:39:34;;;;;;;5.65;0.70;;;6.00;99.90;;;;;;13066592;22;20441;-81
2021/04/23 06:44:34;;;;;;;0.65;0.50;;;6.50;99.90;;;;;;13054794;22;20069;-81
2021/04/23 06:49:36;;;;;;;2.65;0.50;;;6.60;99.90;;;;;;13038700;22;20094;-81
2021/04/23 06:54:37;;;;;;;4.25;0.60;;;6.70;99.90;;;;;;13062355;22;20015;-81
2021/04/23 06:59:37;;;;;;;1.45;0.57;;;6.80;99.90;;;;;;13062402;22;20007;-81
2021/04/23 07:04:38;;;;;;;1.92;0.43;;;7.00;99.90;;;;;;13061296;22;20587;-81
2021/04/23 07:09:39;;;;;;;2.90;0.50;;;7.20;99.90;;;;;;13043721;22;20465;-81
2021/04/23 07:14:39;;;;;;;1.63;0.20;;;7.40;99.90;;;;;;13059619;22;20076;-81
2021/04/23 07:19:40;;;;;;;1.10;0.52;;;7.70;99.90;;;;;;13069503;22;20011;-80
2021/04/23 07:24:41;;;;;;;6.03;0.75;;;7.90;99.90;;;;;;13063475;22;20026;-80
2021/04/23 07:29:42;;;;;;;1.55;0.85;;;8.00;99.90;;;;;;13067620;22;20443;-81
2021/04/23 07:34:43;;;;;;;2.55;1.10;;;8.30;99.90;;;;;;13048829;22;20023;-81
2021/04/23 07:39:43;;;;;;;4.18;1.50;;;8.40;99.90;;;;;;13101935;22;20176;-80
2021/04/23 07:44:44;;;;;;;2.55;1.02;;;8.50;99.90;;;;;;13050052;22;20127;-82
2021/04/23 07:49:47;;;;;;;2.28;0.52;;;8.70;99.90;;;;;;13077198;22;20033;-80
2021/04/23 07:54:48;;;;;;;1.20;0.32;;;8.90;99.90;;;;;;13078475;22;20086;-81
2021/04/23 07:59:48;;;;;;;1.60;0.70;;;8.90;99.90;;;;;;13053410;22;20038;-81
2021/04/23 08:04:49;;;;;;;4.43;1.23;;;9.00;99.90;;;;;;13105161;22;22511;-81
2021/04/23 08:09:50;;;;;;;5.65;0.98;;;9.10;99.90;;;;;;13050455;22;20105;-81
2021/04/23 08:14:50;;;;;;;4.43;0.60;;;9.10;99.90;;;;;;13048826;22;20034;-82
2021/04/23 08:19:52;;;;;;;2.00;0.80;;;9.20;99.90;;;;;;13051747;22;20013;-81
2021/04/23 08:24:52;;;;;;;1.17;0.50;;;9.10;99.90;;;;;;13053416;22;20002;-81
2021/04/23 08:29:54;;;;;;;2.65;1.10;;;9.20;99.90;;;;;;13078365;22;20006;-83
2021/04/23 08:34:54;;;;;;;2.97;1.00;;;9.30;99.90;;;;;;13051839;22;20045;-84
2021/04/23 08:39:55;;;;;;;2.65;0.90;;;9.50;99.90;;;;;;13080656;22;20023;-82
2021/04/23 08:44:56;;;;;;;5.07;1.17;;;9.80;99.90;;;;;;13051451;22;20033;-82
2021/04/23 08:49:59;;;;;;;1.23;0.50;;;9.90;99.90;;;;;;13078739;22;20033;-82
2021/04/23 08:55:00;;;;;;;4.22;1.10;;;9.90;99.90;;;;;;13080017;22;20072;-83
2021/04/23 09:00:01;;;;;;;4.13;0.47;;;10.20;99.90;;;;;;13052610;22;20056;-83
2021/04/23 09:05:02;;;;;;;1.38;0.50;;;10.60;99.90;;;;;;13078395;22;20021;-85
2021/04/23 09:10:11;;;;;;;2.88;1.00;;;11.10;99.90;;;;;;13051261;22;20022;-81
2021/04/23 09:15:23;;;;;;;1.55;0.70;;;11.20;99.90;;;;;;13053471;22;20056;-82
2021/04/23 09:20:27;;;;;;;1.20;0.45;;;11.30;99.90;;;;;;13108614;22;20637;-82
2021/04/23 09:25:38;;;;;;;1.63;0.65;;;11.30;99.90;;;;;;13082370;22;20503;-82
2021/04/23 09:30:39;;;;;;;2.00;0.65;;;11.60;99.90;;;;;;13081640;22;20060;-82
2021/04/23 09:35:40;;;;;;;1.15;0.40;;;11.80;99.90;;;;;;13084719;22;20034;-83
2021/04/23 09:40:40;;;;;;;1.33;0.63;;;12.10;99.90;;;;;;13109261;22;20053;-82
2021/04/23 09:45:54;;;;;;;1.83;0.50;;;12.60;99.90;;;;;;13026255;22;20126;-83
2021/04/23 09:50:55;;;;;;;2.38;0.75;;;12.90;99.90;;;;;;13079721;22;20033;-83
2021/04/23 09:55:56;;;;;;;1.25;0.52;;;13.20;99.90;;;;;;13076895;22;20050;-83
2021/04/23 10:00:58;;;;;;;4.38;0.60;;;13.20;99.90;;;;;;13103955;22;20014;-82
2021/04/23 10:06:22;;;;;;;6.05;0.73;;;13.20;99.90;;;;;;13072451;22;20669;-82
2021/04/23 10:11:40;;;;;;;2.53;0.90;;;13.00;99.90;;;;;;13079282;22;20126;-82
2021/04/23 10:16:41;;;;;;;1.20;0.38;;;13.00;99.90;;;;;;13108198;22;20003;-83
2021/04/23 10:21:42;;;;;;;2.03;0.70;;;13.40;99.90;;;;;;13081095;22;20038;-84
2021/04/23 10:26:44;;;;;;;2.78;1.25;;;13.90;99.90;;;;;;13055422;22;20256;-82
2021/04/23 10:31:44;;;;;;;3.92;1.02;;;13.80;99.90;;;;;;13107134;22;20060;-86
2021/04/23 10:36:45;;;;;;;2.58;0.70;;;13.80;99.90;;;;;;13087111;22;20029;-82
2021/04/23 10:41:46;;;;;;;1.33;0.50;;;13.70;99.90;;;;;;13083147;22;20011;-82
2021/04/23 10:46:51;;;;;;;1.13;0.50;;;14.10;99.90;;;;;;13057490;22;20029;-82
2021/04/23 10:52:04;;;;;;;2.60;0.88;;;14.20;99.90;;;;;;13113203;22;20015;-83
2021/04/23 10:57:06;;;;;;;4.55;0.85;;;14.60;99.70;;;;;;13055771;22;20003;-83
2021/04/23 11:02:15;;;;;;;2.72;1.10;;;15.30;99.90;;;;;;13062719;22;20011;-82
2021/04/23 11:07:18;;;;;;;2.58;0.63;;;15.50;98.70;;;;;;13065204;22;20110;-82
2021/04/23 11:12:19;;;;;;;8.45;1.20;;;15.70;98.80;;;;;;13110828;22;20042;-85
2021/04/23 11:17:20;;;;;;;2.30;0.57;;;15.70;98.80;;;;;;13055455;22;20011;-83
2021/04/23 11:22:29;;;;;;;1.55;0.50;;;15.90;98.90;;;;;;13108123;22;20003;-83
2021/04/23 11:27:30;;;;;;;1.20;0.47;;;16.30;98.20;;;;;;13107768;22;20011;-82
2021/04/23 11:32:32;;;;;;;2.85;0.80;;;16.70;97.30;;;;;;13080421;22;20011;-83
2021/04/23 11:37:42;;;;;;;2.72;1.00;;;17.40;95.00;;;;;;13056304;22;20018;-82
2021/04/23 11:42:45;;;;;;;2.60;0.90;;;16.90;96.00;;;;;;13080382;22;20014;-82
2021/04/23 11:47:51;;;;;;;4.88;0.98;;;17.30;94.50;;;;;;13082335;22;20026;-81
2021/04/23 11:52:57;;;;;;;1.83;0.98;;;17.80;91.40;;;;;;13112954;22;20441;-83
2021/04/23 11:58:07;;;;;;;4.40;1.55;;;17.60;91.10;;;;;;13082635;22;20089;-82
2021/04/23 12:03:17;;;;;;;1.65;0.60;;;18.30;90.80;;;;;;13080145;22;20007;-82
2021/04/23 12:08:23;;;;;;;1.55;0.70;;;19.10;85.60;;;;;;13108880;22;20020;-80
2021/04/23 12:13:35;;;;;;;1.73;0.68;;;19.10;84.80;;;;;;13108508;22;20021;-81
2021/04/23 12:18:44;;;;;;;2.35;0.70;;;18.60;82.50;;;;;;13106711;22;20038;-79
2021/04/23 12:23:45;;;;;;;1.58;0.45;;;18.80;84.40;;;;;;13107469;22;20015;-82
2021/04/23 12:28:51;;;;;;;2.72;0.63;;;19.00;79.90;;;;;;13054134;22;20007;-83
2021/04/23 12:34:02;;;;;;;2.40;0.70;;;18.60;82.90;;;;;;13055627;22;20010;-83
2021/04/23 12:39:10;;;;;;;4.93;0.90;;;19.30;82.50;;;;;;13080993;22;20010;-83
2021/04/23 12:44:17;;;;;;;11.07;1.10;;;20.20;76.60;;;;;;13080080;22;20015;-83
2021/04/23 12:49:21;;;;;;;1.60;0.80;;;20.40;71.70;;;;;;13081275;22;20013;-81
2021/04/23 12:54:36;;;;;;;5.35;1.33;;;20.10;77.90;;;;;;13083111;22;20026;-82
2021/04/23 12:59:39;;;;;;;3.92;1.17;;;20.20;72.30;;;;;;13109133;22;20181;-81
2021/04/23 13:04:40;;;;;;;2.55;0.93;;;20.50;74.50;;;;;;13083219;22;20090;-82
2021/04/23 13:09:41;;;;;;;3.30;1.40;;;20.00;70.90;;;;;;13058971;22;20373;-83
2021/04/23 13:14:42;;;;;;;1.85;0.82;;;20.20;69.20;;;;;;13082845;22;20025;-83
2021/04/23 13:19:46;;;;;;;5.97;1.15;;;20.10;68.80;;;;;;13056083;22;20011;-81
2021/04/23 13:24:47;;;;;;;1.75;0.77;;;20.10;67.80;;;;;;13083728;22;20011;-81
2021/04/23 13:29:47;;;;;;;3.58;1.50;;;20.40;67.70;;;;;;13104575;22;20013;-80
2021/04/23 13:34:57;;;;;;;4.95;0.85;;;20.60;68.80;;;;;;13055844;22;20019;-84
2021/04/23 13:40:09;;;;;;;5.35;0.80;;;20.60;64.50;;;;;;13105294;22;20040;-81
2021/04/23 13:45:12;;;;;;;2.47;0.95;;;20.60;64.20;;;;;;13100946;22;20075;-80
2021/04/23 13:50:16;;;;;;;1.85;0.60;;;20.50;62.50;;;;;;13090246;22;20018;-79
2021/04/23 13:55:17;;;;;;;1.50;0.88;;;19.90;65.20;;;;;;13114663;22;20113;-82
2021/04/23 14:00:18;;;;;;;3.95;0.70;;;19.80;65.30;;;;;;13049637;22;20415;-83
2021/04/23 14:05:18;;;;;;;6.05;1.30;;;19.30;67.70;;;;;;13069351;22;20037;-83
2021/04/23 14:10:19;;;;;;;2.30;0.77;;;18.50;69.80;;;;;;13100318;22;20007;-84
2021/04/23 14:15:20;;;;;;;3.17;0.93;;;17.50;79.20;;;;;;13074224;22;20383;-83
2021/04/23 14:20:21;;;;;;;2.60;1.10;;;16.70;83.20;;;;;;13101782;22;20046;-84
2021/04/23 14:25:21;;;;;;;2.58;1.10;;;16.30;90.10;;;;;;13049367;22;20028;-83
2021/04/23 14:30:22;;;;;;;2.05;0.70;;;15.90;94.50;;;;;;13074917;22;20018;-84
2021/04/23 14:35:23;;;;;;;3.92;1.20;;;15.80;98.50;;;;;;13050270;22;20046;-84
2021/04/23 14:40:23;;;;;;;2.00;0.65;;;15.60;95.20;;;;;;13052095;22;20465;-84
2021/04/23 14:45:24;;;;;;;4.57;1.00;;;15.30;96.10;;;;;;13050848;22;20022;-83
2021/04/23 14:50:25;;;;;;;3.58;1.48;;;15.00;97.00;;;;;;13078819;22;20011;-83
2021/04/23 14:55:27;;;;;;;2.60;0.68;;;14.90;95.90;;;;;;13052442;22;20023;-82
2021/04/23 15:00:29;;;;;;;4.95;1.27;;;14.80;98.20;;;;;;13078382;22;20015;-83
2021/04/23 15:05:30;;;;;;;2.10;0.80;;;14.50;95.00;;;;;;13079504;22;20110;-83
2021/04/23 15:10:34;;;;;;;9.35;0.90;;;14.30;98.20;;;;;;13108729;22;20018;-83
2021/04/23 15:15:35;;;;;;;2.17;1.02;;;14.10;97.10;;;;;;13057604;22;20022;-83
2021/04/23 15:20:36;;;;;;;6.63;0.90;;;14.10;99.70;;;;;;13084918;22;20011;-83
2021/04/23 15:25:40;;;;;;;2.28;1.20;;;14.30;95.90;;;;;;13108979;22;20095;-83
2021/04/23 15:30:43;;;;;;;1.75;0.52;;;14.30;95.60;;;;;;13061596;22;20014;-83
2021/04/23 15:35:44;;;;;;;2.13;0.82;;;14.00;95.10;;;;;;13085306;22;20026;-83
2021/04/23 15:40:51;;;;;;;3.53;0.60;;;14.00;96.40;;;;;;13059990;22;20617;-82
2021/04/23 15:45:55;;;;;;;1.90;0.50;;;14.00;95.70;;;;;;13001466;22;20122;-83
2021/04/23 15:50:58;;;;;;;4.03;0.73;;;13.70;94.50;;;;;;13040412;22;20014;-84
2021/04/23 15:56:00;;;;;;;1.45;0.75;;;13.60;96.30;;;;;;13072485;22;20447;-83
2021/04/23 16:01:00;;;;;;;3.10;0.70;;;13.60;96.60;;;;;;13052288;22;20013;-83
2021/04/23 16:06:01;;;;;;;2.25;0.60;;;13.50;95.80;;;;;;13054656;22;20140;-83
2021/04/23 16:11:03;;;;;;;3.08;0.70;;;13.40;96.90;;;;;;13054725;22;20037;-83
2021/04/23 16:16:04;;;;;;;1.15;0.50;;;13.30;96.90;;;;;;13057076;22;20022;-83
2021/04/23 16:21:05;;;;;;;1.63;0.40;;;13.00;97.30;;;;;;13081490;22;20029;-83
2021/04/23 16:26:05;;;;;;;0.60;0.25;;;12.90;98.30;;;;;;13076901;22;20077;-82
2021/04/23 16:31:06;;;;;;;1.05;0.60;;;13.10;97.60;;;;;;13054356;22;19998;-81
2021/04/23 16:36:07;;;;;;;2.45;0.73;;;12.90;96.80;;;;;;13054066;22;20015;-82
2021/04/23 16:41:08;;;;;;;1.17;0.30;;;12.90;96.60;;;;;;13053491;22;20011;-82
2021/04/23 16:46:09;;;;;;;1.38;0.82;;;12.60;97.60;;;;;;13055627;22;20041;-82
2021/04/23 16:51:10;;;;;;;2.65;0.77;;;12.40;98.70;;;;;;13107084;22;20034;-83
2021/04/23 16:56:11;;;;;;;1.60;0.80;;;12.40;98.80;;;;;;13080392;22;20007;-84
2021/04/23 17:01:11;;;;;;;3.83;1.23;;;12.20;99.30;;;;;;13079127;22;20006;-82
2021/04/23 17:06:12;;;;;;;2.67;0.50;;;12.10;99.30;;;;;;13078838;22;20014;-82
2021/04/23 17:11:13;;;;;;;3.40;0.70;;;12.00;99.90;;;;;;13078663;22;20384;-82
2021/04/23 17:16:14;;;;;;;2.22;0.77;;;12.10;99.90;;;;;;13079440;22;20089;-82
2021/04/23 17:21:14;;;;;;;1.20;0.40;;;12.00;99.90;;;;;;13079901;22;20011;-82
2021/04/23 17:26:15;;;;;;;1.55;0.50;;;11.90;99.90;;;;;;13078773;22;20391;-82
2021/04/23 17:31:16;;;;;;;1.40;0.38;;;11.80;99.90;;;;;;13053851;22;20022;-82
2021/04/23 17:36:17;;;;;;;1.00;0.32;;;11.80;99.90;;;;;;13072626;22;20045;-82
2021/04/23 17:41:17;;;;;;;1.65;0.60;;;11.70;99.90;;;;;;13074861;22;20082;-82
2021/04/23 17:46:18;;;;;;;1.95;0.50;;;11.60;99.90;;;;;;13048317;22;20133;-82
2021/04/23 17:51:19;;;;;;;2.78;1.05;;;11.70;99.90;;;;;;13072900;22;20015;-82
2021/04/23 17:56:20;;;;;;;1.15;0.35;;;11.60;99.90;;;;;;13102634;22;20092;-82
2021/04/23 18:01:20;;;;;;;1.88;1.02;;;11.50;99.90;;;;;;13051732;22;20144;-82
2021/04/23 18:06:21;;;;;;;2.05;0.85;;;11.30;99.90;;;;;;13076798;22;20087;-82
2021/04/23 18:11:22;;;;;;;2.90;0.75;;;11.30;99.90;;;;;;13075194;22;20778;-82
2021/04/23 18:16:27;;;;;;;3.78;1.50;;;11.20;99.90;;;;;;13075939;22;20132;-82
2021/04/23 18:21:28;;;;;;;2.10;0.98;;;11.10;99.90;;;;;;13076207;22;20303;-82
2021/04/23 18:26:28;;;;;;;3.63;0.88;;;11.00;99.90;;;;;;13075108;22;20048;-82
2021/04/23 18:31:29;;;;;;;2.20;0.75;;;10.90;99.90;;;;;;13052067;22;20067;-82
2021/04/23 18:36:30;;;;;;;1.55;0.35;;;10.70;99.90;;;;;;13100846;22;20068;-82
2021/04/23 18:41:31;;;;;;;1.60;0.88;;;10.80;99.90;;;;;;13101508;22;20140;-82
2021/04/23 18:46:32;;;;;;;1.90;0.43;;;10.70;99.90;;;;;;13050865;22;591816;-82
2021/04/23 18:51:33;;;;;;;2.10;0.40;;;10.70;99.90;;;;;;13052311;22;20017;-82
2021/04/23 18:56:34;;;;;;;5.82;0.52;;;10.60;99.90;;;;;;13079114;22;20094;-82
2021/04/23 19:01:35;;;;;;;2.45;0.65;;;10.50;99.90;;;;;;13084345;22;20011;-82
2021/04/23 19:06:36;;;;;;;1.35;0.45;;;10.50;99.90;;;;;;13084865;22;20015;-82
2021/04/23 19:11:37;;;;;;;1.23;0.30;;;10.40;99.90;;;;;;13058918;22;20052;-81
2021/04/23 19:16:39;;;;;;;2.22;0.68;;;10.30;99.90;;;;;;13058354;22;20010;-81
2021/04/23 19:21:45;;;;;;;1.45;0.68;;;10.40;99.90;;;;;;13060677;22;20023;-81
2021/04/23 19:26:46;;;;;;;3.05;0.60;;;10.30;99.90;;;;;;13061629;22;20003;-81
2021/04/23 19:31:47;;;;;;;1.42;0.57;;;10.20;99.90;;;;;;13061267;22;20113;-81
2021/04/23 19:36:48;;;;;;;3.35;0.73;;;10.20;99.90;;;;;;13087002;22;20094;-82
2021/04/23 19:41:48;;;;;;;6.05;1.15;;;10.20;99.90;;;;;;13088087;22;20007;-82
2021/04/23 19:46:49;;;;;;;2.47;0.93;;;10.10;99.90;;;;;;13087698;22;20022;-81
2021/04/23 19:51:50;;;;;;;2.25;0.60;;;10.00;99.90;;;;;;13087812;22;20520;-81
2021/04/23 19:56:52;;;;;;;2.22;0.50;;;10.00;99.90;;;;;;13087995;22;20006;-81
2021/04/23 20:01:53;;;;;;;2.97;0.88;;;9.90;99.90;;;;;;13060815;22;20106;-82
2021/04/23 20:06:54;;;;;;;3.17;1.10;;;9.80;99.90;;;;;;13087890;22;20366;-82
2021/04/23 20:11:54;;;;;;;2.15;1.05;;;9.90;99.90;;;;;;13062311;22;20423;-81
2021/04/23 20:16:55;;;;;;;1.40;0.63;;;9.80;99.90;;;;;;13088905;22;20011;-82
2021/04/23 20:21:56;;;;;;;2.78;0.88;;;9.80;99.90;;;;;;13090034;22;20010;-82
2021/04/23 20:26:58;;;;;;;3.80;0.98;;;9.60;99.90;;;;;;13089205;22;20468;-82
2021/04/23 20:31:59;;;;;;;1.63;0.60;;;9.70;99.90;;;;;;13117183;22;20031;-81
2021/04/23 20:37:00;;;;;;;4.50;0.82;;;9.60;99.90;;;;;;13125208;22;20029;-82
2021/04/23 20:42:01;;;;;;;1.75;0.80;;;9.40;99.90;;;;;;13108749;22;20081;-82
2021/04/23 20:47:01;;;;;;;2.03;0.77;;;9.40;99.90;;;;;;13083288;22;20029;-81
2021/04/23 20:52:02;;;;;;;4.68;0.80;;;9.40;99.90;;;;;;13057609;22;20014;-81
2021/04/23 20:57:04;;;;;;;2.50;0.88;;;9.30;99.90;;;;;;13056757;22;20014;-81
2021/04/23 21:02:05;;;;;;;11.02;1.25;;;9.20;99.90;;;;;;13082272;22;20384;-81
2021/04/23 21:07:06;;;;;;;2.55;0.60;;;9.20;99.90;;;;;;13056209;22;20056;-81
2021/04/23 21:12:07;;;;;;;1.67;0.43;;;9.20;99.90;;;;;;13108371;22;20021;-82
2021/04/23 21:17:08;;;;;;;3.45;0.80;;;9.20;99.90;;;;;;13056935;22;20022;-83
2021/04/23 21:22:09;;;;;;;1.95;0.55;;;9.10;99.90;;;;;;13056654;22;20093;-83
2021/04/23 21:27:10;;;;;;;4.43;1.50;;;9.00;99.90;;;;;;13108529;22;19999;-81
2021/04/23 21:32:11;;;;;;;3.17;0.95;;;8.90;99.90;;;;;;13057514;22;20065;-81
2021/04/23 21:37:12;;;;;;;1.48;0.68;;;8.80;99.90;;;;;;13058624;22;20018;-81
2021/04/23 21:42:12;;;;;;;2.83;1.02;;;8.70;99.90;;;;;;13083328;22;20014;-81
2021/04/23 21:47:13;;;;;;;0.93;0.35;;;8.70;99.90;;;;;;13083277;22;20021;-81
2021/04/23 21:52:14;;;;;;;2.95;0.60;;;8.50;99.90;;;;;;13083983;22;20054;-81
2021/04/23 21:57:14;;;;;;;2.35;1.02;;;8.50;99.90;;;;;;13057657;22;20052;-81
2021/04/23 22:02:15;;;;;;;1.63;0.70;;;8.40;99.90;;;;;;13083524;22;20024;-81
2021/04/23 22:07:16;;;;;;;3.67;0.68;;;8.30;99.90;;;;;;13056724;22;20695;-81
2021/04/23 22:12:16;;;;;;;1.33;0.43;;;8.30;99.90;;;;;;13058512;22;20014;-80
2021/04/23 22:17:17;;;;;;;2.22;0.75;;;8.20;99.90;;;;;;13082828;22;20038;-80
2021/04/23 22:22:18;;;;;;;5.57;0.90;;;8.10;99.90;;;;;;13110393;22;20095;-80
2021/04/23 22:27:19;;;;;;;2.40;0.25;;;8.20;99.90;;;;;;13109361;22;20006;-81
2021/04/23 22:32:22;;;;;;;6.85;1.08;;;8.10;99.90;;;;;;13061285;22;20346;-81
2021/04/23 22:37:23;;;;;;;2.13;0.85;;;8.00;99.90;;;;;;13062257;22;20221;-81
2021/04/23 22:42:24;;;;;;;3.53;0.80;;;7.90;99.90;;;;;;13061596;22;20383;-81
2021/04/23 22:47:24;;;;;;;4.57;1.52;;;7.90;99.90;;;;;;13060345;22;20084;-81
2021/04/23 22:52:25;;;;;;;3.17;1.10;;;7.90;99.90;;;;;;13112123;22;20022;-81
2021/04/23 22:57:27;;;;;;;1.73;0.90;;;7.90;99.90;;;;;;13086288;22;20472;-81
2021/04/23 23:02:27;;;;;;;2.90;0.98;;;7.80;99.90;;;;;;13061632;22;20070;-81
2021/04/23 23:07:28;;;;;;;7.15;0.70;;;7.70;99.90;;;;;;13085748;22;20418;-81
2021/04/23 23:12:29;;;;;;;9.23;1.85;;;7.70;99.90;;;;;;13059776;22;20018;-81
2021/04/23 23:17:30;;;;;;;4.78;1.38;;;7.70;99.90;;;;;;13060255;22;20007;-81
2021/04/23 23:22:30;;;;;;;3.60;0.93;;;7.70;99.90;;;;;;13086744;22;20015;-81
2021/04/23 23:27:32;;;;;;;3.42;0.55;;;7.70;99.90;;;;;;13111527;22;20007;-81
2021/04/23 23:32:35;;;;;;;4.13;1.90;;;7.50;99.90;;;;;;13086216;22;20015;-81
2021/04/23 23:37:36;;;;;;;1.55;0.70;;;7.50;99.90;;;;;;13086527;22;20334;-81
2021/04/23 23:42:37;;;;;;;2.80;0.93;;;7.40;99.90;;;;;;13060430;22;20022;-81
2021/04/23 23:47:38;;;;;;;5.13;1.13;;;7.30;99.90;;;;;;13059525;22;20034;-81
2021/04/23 23:52:39;;;;;;;2.80;0.68;;;7.20;99.90;;;;;;13087611;22;20015;-81
2021/04/23 23:57:40;;;;;;;2.00;0.77;;;7.10;99.90;;;;;;13086182;22;20034;-81
